sensor_id;sensor_type;location;lat;lon;timestamp;P1;durP1;ratioP1;P2;durP2;ratioP2
53925;SDS011;39836;52.754;6.866;2023-07-31T08:56:08;7.90;;;4.00;;
53925;SDS011;39836;52.754;6.866;2023-07-31T08:59:13;7.60;;;3.50;;
53925;SDS011;39836;52.754;6.866;2023-07-31T09:01:49;7.50;;;3.85;;
53925;SDS011;39836;52.754;6.866;2023-07-31T09:04:18;8.65;;;4.43;;
53925;SDS011;39836;52.754;6.866;2023-07-31T09:06:46;7.68;;;4.00;;
53925;SDS011;39836;52.754;6.866;2023-07-31T09:09:13;6.60;;;3.60;;
53925;SDS011;39836;52.754;6.866;2023-07-31T09:11:40;11.10;;;4.22;;
53925;SDS011;39836;52.754;6.866;2023-07-31T09:14:07;7.22;;;3.67;;
53925;SDS011;39836;52.754;6.866;2023-07-31T09:16:34;7.20;;;3.80;;
53925;SDS011;39836;52.754;6.866;2023-07-31T09:19:02;4.53;;;2.58;;
53925;SDS011;39836;52.754;6.866;2023-07-31T09:21:29;4.82;;;2.80;;
53925;SDS011;39836;52.754;6.866;2023-07-31T09:23:55;8.60;;;2.47;;
53925;SDS011;39836;52.754;6.866;2023-07-31T09:29:04;5.25;;;2.22;;
53925;SDS011;39836;52.754;6.866;2023-07-31T09:31:43;4.78;;;2.33;;
53925;SDS011;39836;52.754;6.866;2023-07-31T09:34:10;5.82;;;2.13;;
53925;SDS011;39836;52.754;6.866;2023-07-31T09:36:49;3.80;;;2.13;;
53925;SDS011;39836;52.754;6.866;2023-07-31T09:39:17;5.40;;;2.10;;
53925;SDS011;39836;52.754;6.866;2023-07-31T12:22:19;4.88;;;2.88;;
53925;SDS011;39836;52.754;6.866;2023-07-31T12:25:29;4.22;;;2.80;;
53925;SDS011;39836;52.754;6.866;2023-07-31T12:28:29;6.25;;;3.70;;
53925;SDS011;39836;52.754;6.866;2023-07-31T12:42:23;8.68;;;6.53;;
53925;SDS011;39836;52.754;6.866;2023-07-31T13:37:52;10.07;;;5.93;;
53925;SDS011;39836;52.754;6.866;2023-07-31T14:12:42;16.02;;;9.55;;
53925;SDS011;39836;52.754;6.866;2023-07-31T14:15:55;12.00;;;8.40;;
53925;SDS011;39836;52.754;6.866;2023-07-31T14:22:47;11.35;;;6.70;;
53925;SDS011;39836;52.754;6.866;2023-07-31T14:25:16;13.35;;;5.80;;
53925;SDS011;39836;52.754;6.866;2023-07-31T14:27:48;10.85;;;4.80;;
53925;SDS011;39836;52.754;6.866;2023-07-31T14:30:14;8.95;;;6.18;;
53925;SDS011;39836;52.754;6.866;2023-07-31T14:32:43;12.38;;;7.88;;
53925;SDS011;39836;52.754;6.866;2023-07-31T14:35:13;11.82;;;7.05;;
53925;SDS011;39836;52.754;6.866;2023-07-31T14:37:42;11.93;;;6.55;;
53925;SDS011;39836;52.754;6.866;2023-07-31T16:21:18;7.88;;;4.78;;
53925;SDS011;39836;52.754;6.866;2023-07-31T16:23:45;6.95;;;4.95;;
53925;SDS011;39836;52.754;6.866;2023-07-31T16:26:11;7.72;;;5.20;;
53925;SDS011;39836;52.754;6.866;2023-07-31T16:28:40;7.38;;;5.40;;
53925;SDS011;39836;52.754;6.866;2023-07-31T16:31:09;6.57;;;5.32;;
53925;SDS011;39836;52.754;6.866;2023-07-31T16:33:36;8.63;;;5.30;;
53925;SDS011;39836;52.754;6.866;2023-07-31T16:36:02;9.25;;;5.85;;
53925;SDS011;39836;52.754;6.866;2023-07-31T16:38:31;10.95;;;5.70;;
53925;SDS011;39836;52.754;6.866;2023-07-31T16:40:58;10.50;;;6.40;;
53925;SDS011;39836;52.754;6.866;2023-07-31T16:46:19;6.95;;;4.15;;
53925;SDS011;39836;52.754;6.866;2023-07-31T16:48:48;7.95;;;4.45;;
53925;SDS011;39836;52.754;6.866;2023-07-31T16:51:32;5.78;;;4.07;;
53925;SDS011;39836;52.754;6.866;2023-07-31T16:54:10;5.05;;;2.67;;
53925;SDS011;39836;52.754;6.866;2023-07-31T16:59:50;2.38;;;1.60;;
53925;SDS011;39836;52.754;6.866;2023-07-31T17:02:48;3.80;;;2.10;;
53925;SDS011;39836;52.754;6.866;2023-07-31T17:05:18;2.45;;;1.70;;
53925;SDS011;39836;52.754;6.866;2023-07-31T17:07:48;2.88;;;2.10;;
53925;SDS011;39836;52.754;6.866;2023-07-31T17:25:34;4.90;;;2.13;;
53925;SDS011;39836;52.754;6.866;2023-07-31T17:28:06;8.77;;;2.40;;
53925;SDS011;39836;52.754;6.866;2023-07-31T18:26:49;5.20;;;1.23;;
53925;SDS011;39836;52.754;6.866;2023-07-31T21:32:20;21.65;;;11.68;;
53925;SDS011;39836;52.754;6.866;2023-07-31T21:34:47;21.13;;;12.38;;
53925;SDS011;39836;52.754;6.866;2023-07-31T21:37:13;20.80;;;12.07;;
53925;SDS011;39836;52.754;6.866;2023-07-31T21:39:39;17.50;;;11.45;;
53925;SDS011;39836;52.754;6.866;2023-07-31T21:42:06;21.42;;;12.45;;
53925;SDS011;39836;52.754;6.866;2023-07-31T21:44:38;19.15;;;12.15;;
53925;SDS011;39836;52.754;6.866;2023-07-31T21:47:25;21.85;;;13.20;;
53925;SDS011;39836;52.754;6.866;2023-07-31T21:49:51;24.48;;;12.23;;
53925;SDS011;39836;52.754;6.866;2023-07-31T21:52:16;19.88;;;12.90;;
53925;SDS011;39836;52.754;6.866;2023-07-31T21:54:42;19.35;;;12.85;;
53925;SDS011;39836;52.754;6.866;2023-07-31T21:57:08;23.63;;;13.90;;
53925;SDS011;39836;52.754;6.866;2023-07-31T21:59:33;27.52;;;14.90;;
53925;SDS011;39836;52.754;6.866;2023-07-31T22:02:00;23.77;;;14.65;;
53925;SDS011;39836;52.754;6.866;2023-07-31T22:04:26;21.75;;;14.98;;
53925;SDS011;39836;52.754;6.866;2023-07-31T22:06:52;21.98;;;14.40;;
53925;SDS011;39836;52.754;6.866;2023-07-31T22:09:18;26.60;;;15.85;;
53925;SDS011;39836;52.754;6.866;2023-07-31T22:11:59;20.73;;;16.08;;
53925;SDS011;39836;52.754;6.866;2023-07-31T22:17:31;27.15;;;18.25;;
53925;SDS011;39836;52.754;6.866;2023-07-31T22:20:22;35.53;;;17.92;;
53925;SDS011;39836;52.754;6.866;2023-07-31T22:27:06;31.75;;;19.40;;
53925;SDS011;39836;52.754;6.866;2023-07-31T22:29:36;37.85;;;20.63;;
53925;SDS011;39836;52.754;6.866;2023-07-31T23:03:08;17.95;;;7.55;;
53925;SDS011;39836;52.754;6.866;2023-07-31T23:05:38;11.05;;;6.65;;
53925;SDS011;39836;52.754;6.866;2023-07-31T23:36:59;20.80;;;10.35;;
53925;SDS011;39836;52.754;6.866;2023-07-31T23:39:28;20.35;;;10.60;;
53925;SDS011;39836;52.754;6.866;2023-07-31T23:45:43;30.33;;;12.25;;
